createdAt,value
2022-12-29T00:00:28.035Z,98.26
2022-12-29T00:02:54.915Z,98.44
2022-12-29T00:05:23.417Z,100.00
2022-12-29T00:07:50.560Z,99.92
2022-12-29T00:10:20.100Z,100.00
2022-12-29T00:12:48.215Z,100.00
2022-12-29T00:15:15.090Z,100.00
2022-12-29T00:17:43.660Z,100.00
2022-12-29T00:20:10.816Z,100.00
2022-12-29T00:22:38.910Z,99.82
2022-12-29T00:25:09.279Z,99.07
2022-12-29T00:27:37.709Z,98.75
2022-12-29T00:30:09.732Z,97.29
2022-12-29T00:32:36.693Z,97.02
2022-12-29T00:35:03.709Z,98.09
2022-12-29T00:37:31.792Z,98.08
2022-12-29T00:39:58.558Z,98.33
2022-12-29T00:42:28.556Z,98.50
2022-12-29T00:44:57.925Z,98.86
2022-12-29T00:47:25.142Z,98.82
2022-12-29T00:49:55.551Z,99.67
2022-12-29T00:52:22.557Z,100.00
2022-12-29T00:54:49.448Z,100.00
2022-12-29T00:57:16.457Z,100.00
2022-12-29T00:59:45.772Z,100.00
2022-12-29T01:02:15.194Z,100.00
2022-12-29T01:04:42.138Z,100.00
2022-12-29T01:07:09.035Z,100.00
2022-12-29T01:09:36.103Z,100.00
2022-12-29T01:12:05.394Z,98.60
2022-12-29T01:14:32.724Z,99.45
2022-12-29T01:17:03.388Z,97.32
2022-12-29T01:19:32.880Z,98.65
2022-12-29T01:21:59.637Z,95.51
2022-12-29T01:24:28.815Z,95.15
2022-12-29T01:26:55.803Z,94.33
2022-12-29T01:29:23.774Z,91.73
2022-12-29T01:31:50.768Z,94.04
2022-12-29T01:34:20.063Z,94.17
2022-12-29T01:36:48.153Z,91.37
2022-12-29T01:39:15.179Z,93.16
2022-12-29T01:41:43.008Z,91.75
2022-12-29T01:44:49.454Z,91.88
2022-12-29T01:47:22.000Z,88.44
2022-12-29T01:49:49.444Z,89.08
2022-12-29T01:52:17.985Z,91.36
2022-12-29T01:54:49.546Z,88.34
2022-12-29T01:57:20.821Z,89.98
2022-12-29T01:59:55.261Z,89.36
2022-12-29T02:02:23.371Z,91.90
2022-12-29T02:04:53.147Z,89.95
2022-12-29T02:07:25.697Z,89.37
2022-12-29T02:09:55.082Z,92.34
2022-12-29T02:12:24.497Z,91.38
2022-12-29T02:14:56.441Z,91.03
2022-12-29T02:17:47.881Z,91.33
2022-12-29T02:21:06.143Z,92.13
2022-12-29T02:24:08.211Z,92.12
2022-12-29T02:26:50.277Z,90.76
2022-12-29T02:29:53.575Z,92.50
2022-12-29T02:32:29.943Z,92.75
2022-12-29T02:35:06.055Z,94.50
2022-12-29T02:37:43.037Z,94.31
2022-12-29T02:40:24.041Z,94.47
2022-12-29T02:42:55.215Z,93.72
2022-12-29T02:45:27.279Z,93.44
2022-12-29T02:48:02.118Z,92.42
2022-12-29T02:50:37.865Z,94.54
2022-12-29T02:53:08.877Z,93.66
2022-12-29T02:55:35.676Z,91.68
2022-12-29T02:58:20.508Z,91.19
2022-12-29T03:01:08.148Z,95.54
2022-12-29T03:03:49.232Z,95.35
2022-12-29T03:06:28.160Z,91.85
2022-12-29T03:09:02.170Z,92.78
2022-12-29T03:11:39.071Z,93.55
2022-12-29T03:14:12.259Z,94.12
2022-12-29T03:16:45.557Z,92.38
2022-12-29T03:19:20.682Z,94.82
2022-12-29T03:21:54.895Z,95.69
2022-12-29T03:24:23.424Z,94.51
2022-12-29T03:26:53.799Z,91.11
2022-12-29T03:29:22.125Z,89.07
2022-12-29T03:31:50.555Z,90.49
2022-12-29T03:34:23.877Z,89.13
2022-12-29T03:36:57.751Z,90.29
2022-12-29T03:39:26.169Z,92.15
2022-12-29T03:41:58.988Z,91.76
2022-12-29T03:44:34.045Z,92.43
2022-12-29T03:47:03.436Z,89.87
2022-12-29T03:49:33.586Z,90.51
2022-12-29T03:52:01.091Z,89.75
2022-12-29T03:54:28.199Z,90.78
2022-12-29T03:56:54.914Z,91.35
2022-12-29T03:59:21.891Z,91.40
2022-12-29T04:01:53.384Z,92.25
2022-12-29T04:04:21.641Z,90.55
2022-12-29T04:06:52.016Z,91.43
2022-12-29T04:09:18.779Z,91.22
2022-12-29T04:11:45.650Z,91.42
2022-12-29T04:14:13.798Z,92.01
2022-12-29T04:16:41.747Z,92.96
2022-12-29T04:19:09.287Z,92.95
2022-12-29T04:21:36.267Z,92.90
2022-12-29T04:24:05.307Z,93.16
2022-12-29T04:26:32.379Z,91.75
2022-12-29T04:28:59.257Z,91.76
2022-12-29T04:31:27.356Z,91.67
2022-12-29T04:33:54.551Z,91.17
2022-12-29T04:36:25.339Z,90.99
2022-12-29T04:38:56.473Z,91.89
2022-12-29T04:41:26.968Z,90.98
2022-12-29T04:43:53.879Z,91.38
2022-12-29T04:46:21.073Z,92.14
2022-12-29T04:48:49.123Z,91.68
2022-12-29T04:51:16.193Z,92.04
2022-12-29T04:53:44.424Z,91.08
2022-12-29T04:56:12.872Z,91.19
2022-12-29T04:58:41.292Z,92.18
2022-12-29T05:01:08.049Z,93.12
2022-12-29T05:03:36.169Z,93.82
2022-12-29T05:06:03.026Z,92.34
2022-12-29T05:08:32.146Z,91.32
2022-12-29T05:10:58.908Z,91.20
2022-12-29T05:13:29.285Z,90.37
2022-12-29T05:15:58.680Z,90.01
2022-12-29T05:18:25.722Z,91.12
2022-12-29T05:20:53.070Z,91.63
2022-12-29T05:23:24.077Z,92.25
2022-12-29T05:25:51.263Z,92.06
2022-12-29T05:28:18.653Z,92.06
2022-12-29T05:30:49.612Z,92.15
2022-12-29T05:33:19.587Z,92.69
2022-12-29T05:35:46.658Z,93.87
2022-12-29T05:38:13.968Z,94.99
2022-12-29T05:40:41.562Z,95.03
2022-12-29T05:43:08.321Z,95.62
2022-12-29T05:45:37.627Z,97.11
2022-12-29T05:48:05.540Z,97.66
2022-12-29T05:50:35.578Z,96.99
2022-12-29T05:53:02.310Z,96.06
2022-12-29T05:55:29.157Z,95.41
2022-12-29T05:57:55.985Z,96.37
2022-12-29T06:00:23.035Z,97.11
2022-12-29T06:02:50.044Z,96.52
2022-12-29T06:05:17.420Z,96.68
2022-12-29T06:07:45.631Z,96.65
2022-12-29T06:10:13.063Z,96.01
2022-12-29T06:12:39.909Z,96.19
2022-12-29T06:15:08.509Z,95.80
2022-12-29T06:17:35.347Z,98.04
2022-12-29T06:20:04.225Z,97.60
2022-12-29T06:22:32.774Z,97.16
2022-12-29T06:25:04.961Z,96.75
2022-12-29T06:27:32.627Z,96.28
2022-12-29T06:29:59.395Z,94.55
2022-12-29T06:32:29.307Z,94.43
2022-12-29T06:34:57.691Z,94.44
2022-12-29T06:37:26.151Z,93.26
2022-12-29T06:39:53.350Z,91.85
2022-12-29T06:42:28.006Z,91.63
2022-12-29T06:44:54.742Z,92.19
2022-12-29T06:47:23.000Z,92.48
2022-12-29T06:49:50.062Z,92.36
2022-12-29T06:52:18.122Z,94.53
2022-12-29T06:54:45.454Z,94.84
2022-12-29T06:57:12.530Z,96.41
2022-12-29T06:59:50.503Z,96.15
2022-12-29T07:02:17.798Z,95.90
2022-12-29T07:04:44.921Z,97.26
2022-12-29T07:07:12.531Z,96.58
2022-12-29T07:09:45.938Z,98.22
2022-12-29T07:12:16.141Z,97.98
2022-12-29T07:14:46.775Z,97.35
2022-12-29T07:17:16.196Z,97.65
2022-12-29T07:19:45.108Z,95.85
2022-12-29T07:22:14.217Z,95.68
2022-12-29T07:24:42.417Z,97.18
2022-12-29T07:27:09.372Z,97.33
2022-12-29T07:29:38.520Z,97.50
2022-12-29T07:32:11.703Z,96.82
2022-12-29T07:34:39.169Z,97.28
2022-12-29T07:37:06.946Z,96.71
2022-12-29T07:39:51.985Z,96.94
2022-12-29T07:42:19.370Z,96.95
2022-12-29T07:44:49.223Z,97.37
2022-12-29T07:47:19.308Z,97.10
2022-12-29T07:49:47.723Z,96.38
2022-12-29T07:52:15.061Z,97.98
2022-12-29T07:54:44.210Z,97.11
2022-12-29T07:57:16.294Z,96.92
2022-12-29T07:59:47.751Z,95.60
2022-12-29T08:02:15.356Z,95.80
2022-12-29T08:04:43.721Z,95.98
2022-12-29T08:07:10.560Z,96.47
2022-12-29T08:09:38.570Z,96.91
2022-12-29T08:12:05.695Z,96.78
2022-12-29T08:14:32.400Z,95.79
2022-12-29T08:17:01.773Z,95.12
2022-12-29T08:19:28.817Z,93.14
2022-12-29T08:21:57.079Z,91.95
2022-12-29T08:24:23.879Z,90.91
2022-12-29T08:26:53.505Z,90.17
2022-12-29T08:29:20.400Z,89.00
2022-12-29T08:31:48.600Z,89.05
2022-12-29T08:34:19.828Z,86.98
2022-12-29T08:36:47.967Z,85.68
2022-12-29T08:39:17.826Z,87.12
2022-12-29T08:41:45.746Z,87.11
2022-12-29T08:44:12.515Z,84.13
2022-12-29T08:46:39.785Z,83.95
2022-12-29T08:49:07.785Z,83.05
2022-12-29T08:51:35.685Z,82.96
2022-12-29T08:54:05.875Z,81.74
2022-12-29T08:56:34.041Z,81.19
2022-12-29T08:59:02.471Z,79.66
2022-12-29T09:01:29.329Z,80.05
2022-12-29T09:04:17.100Z,79.66
2022-12-29T09:06:45.084Z,76.50
2022-12-29T09:09:13.736Z,76.51
2022-12-29T09:11:44.260Z,76.62
2022-12-29T09:14:13.409Z,77.90
2022-12-29T09:16:40.973Z,77.02
2022-12-29T09:19:08.859Z,76.40
2022-12-29T09:21:35.901Z,75.65
2022-12-29T09:24:04.022Z,75.10
2022-12-29T09:26:30.779Z,73.50
2022-12-29T09:29:00.448Z,72.36
2022-12-29T09:31:28.384Z,72.20
2022-12-29T09:33:58.811Z,72.60
2022-12-29T09:36:27.039Z,71.89
2022-12-29T09:38:54.644Z,71.80
2022-12-29T09:41:28.260Z,71.71
2022-12-29T09:44:12.389Z,72.23
2022-12-29T09:46:43.629Z,70.77
2022-12-29T09:49:20.529Z,70.56
2022-12-29T09:51:53.083Z,69.99
2022-12-29T09:54:55.007Z,69.01
2022-12-29T09:57:31.146Z,68.84
2022-12-29T10:00:03.604Z,68.70
2022-12-29T10:02:37.726Z,66.40
2022-12-29T10:05:05.604Z,66.74
2022-12-29T10:07:43.341Z,66.03
2022-12-29T10:10:34.633Z,67.30
2022-12-29T10:13:37.785Z,64.63
2022-12-29T10:16:16.127Z,64.54
2022-12-29T10:19:03.175Z,65.64
2022-12-29T10:21:41.886Z,66.46
2022-12-29T10:24:12.984Z,65.33
2022-12-29T10:26:44.217Z,64.23
2022-12-29T10:29:17.366Z,64.53
2022-12-29T10:31:50.207Z,64.96
2022-12-29T10:34:21.837Z,65.06
2022-12-29T10:36:51.868Z,64.96
2022-12-29T10:39:24.349Z,63.68
2022-12-29T10:41:59.545Z,64.39
2022-12-29T10:44:31.429Z,63.15
2022-12-29T10:47:04.623Z,62.29
2022-12-29T10:52:20.528Z,62.26
2022-12-29T10:54:50.589Z,60.66
2022-12-29T10:57:27.694Z,62.41
2022-12-29T10:59:54.674Z,60.61
2022-12-29T11:02:55.632Z,59.87
2022-12-29T11:05:33.406Z,60.61
2022-12-29T11:08:04.252Z,60.22
2022-12-29T11:10:38.196Z,60.64
2022-12-29T11:13:12.991Z,59.35
2022-12-29T11:15:42.809Z,59.42
2022-12-29T11:18:21.954Z,58.99
2022-12-29T11:20:53.567Z,59.65
2022-12-29T11:23:28.015Z,59.58
2022-12-29T11:26:06.715Z,58.05
2022-12-29T11:28:34.902Z,57.74
2022-12-29T11:31:05.232Z,57.36
2022-12-29T11:33:35.294Z,56.07
2022-12-29T11:36:07.642Z,56.86
2022-12-29T11:38:37.834Z,57.79
2022-12-29T11:41:27.306Z,57.62
2022-12-29T11:44:03.735Z,56.83
2022-12-29T11:46:38.789Z,56.72
2022-12-29T11:49:15.531Z,57.14
2022-12-29T11:51:47.851Z,57.96
2022-12-29T11:54:20.454Z,58.46
2022-12-29T11:56:50.985Z,58.99
2022-12-29T11:59:40.689Z,58.70
2022-12-29T12:02:35.884Z,59.62
2022-12-29T12:05:20.518Z,59.37
2022-12-29T12:07:52.123Z,59.15
2022-12-29T12:10:27.382Z,59.48
2022-12-29T12:13:01.235Z,58.43
2022-12-29T12:15:33.919Z,57.95
2022-12-29T12:18:06.727Z,57.64
2022-12-29T12:20:45.224Z,58.70
2022-12-29T12:23:22.278Z,58.72
2022-12-29T12:26:00.776Z,57.31
2022-12-29T12:28:37.858Z,58.29
2022-12-29T12:31:19.763Z,57.36
2022-12-29T12:33:59.129Z,58.34
2022-12-29T12:36:55.480Z,58.41
2022-12-29T12:39:34.003Z,57.02
2022-12-29T12:42:19.069Z,57.68
2022-12-29T12:45:06.378Z,56.73
2022-12-29T12:47:54.618Z,55.04
2022-12-29T12:50:42.847Z,55.33
2022-12-29T12:53:40.722Z,56.89
2022-12-29T12:56:57.040Z,56.59
2022-12-29T12:59:38.424Z,54.79
2022-12-29T13:02:21.436Z,55.48
2022-12-29T13:05:25.990Z,54.33
2022-12-29T13:08:06.524Z,54.08
2022-12-29T13:10:47.065Z,53.83
2022-12-29T13:13:38.881Z,53.63
2022-12-29T13:16:14.685Z,54.26
2022-12-29T13:18:49.928Z,54.77
2022-12-29T13:21:30.672Z,55.77
2022-12-29T13:24:08.003Z,55.60
2022-12-29T13:26:47.500Z,55.57
2022-12-29T13:29:19.391Z,54.83
2022-12-29T13:31:54.896Z,56.22
2022-12-29T13:34:39.541Z,55.21
2022-12-29T13:37:13.347Z,56.49
2022-12-29T13:39:43.921Z,56.56
2022-12-29T13:42:13.986Z,56.74
2022-12-29T13:44:46.018Z,58.19
2022-12-29T13:47:22.916Z,57.85
2022-12-29T13:49:53.667Z,57.80
2022-12-29T13:52:31.180Z,57.93
2022-12-29T13:55:09.024Z,56.98
2022-12-29T13:57:49.115Z,57.81
2022-12-29T14:00:19.004Z,57.27
2022-12-29T14:03:03.285Z,58.47
2022-12-29T14:05:34.384Z,57.91
2022-12-29T14:08:05.765Z,58.66
2022-12-29T14:10:38.236Z,59.34
2022-12-29T14:13:13.725Z,59.23
2022-12-29T14:15:45.918Z,59.71
2022-12-29T14:18:18.527Z,60.07
2022-12-29T14:20:54.035Z,61.26
2022-12-29T14:23:40.552Z,61.32
2022-12-29T14:26:17.036Z,61.96
2022-12-29T14:28:50.722Z,62.35
2022-12-29T14:31:36.680Z,62.59
2022-12-29T14:34:46.357Z,62.93
2022-12-29T14:37:25.419Z,63.51
2022-12-29T14:40:09.981Z,64.42
2022-12-29T14:42:39.451Z,64.25
2022-12-29T14:45:25.621Z,64.21
2022-12-29T14:48:00.296Z,65.19
2022-12-29T14:50:41.828Z,67.58
2022-12-29T14:53:44.994Z,69.37
2022-12-29T14:56:16.678Z,73.11
2022-12-29T14:58:49.826Z,75.88
2022-12-29T15:01:26.486Z,76.34
2022-12-29T15:03:58.439Z,76.96
2022-12-29T15:06:30.656Z,76.13
2022-12-29T15:09:07.199Z,78.05
2022-12-29T15:11:51.172Z,81.29
2022-12-29T15:14:37.690Z,80.22
2022-12-29T15:17:24.537Z,80.98
2022-12-29T15:19:54.818Z,82.12
2022-12-29T15:22:24.435Z,82.93
2022-12-29T15:24:59.714Z,83.35
2022-12-29T15:27:27.622Z,83.22
2022-12-29T15:29:59.759Z,83.29
2022-12-29T15:32:30.308Z,83.56
2022-12-29T15:34:59.949Z,83.19
2022-12-29T15:37:29.361Z,84.55
2022-12-29T15:39:59.427Z,85.91
2022-12-29T15:42:53.486Z,84.72
2022-12-29T15:45:28.200Z,85.73
2022-12-29T15:48:00.251Z,84.72
2022-12-29T15:50:35.692Z,86.38
2022-12-29T15:53:04.120Z,87.58
2022-12-29T15:55:37.778Z,88.16
2022-12-29T15:58:06.715Z,88.83
2022-12-29T16:00:41.803Z,87.46
2022-12-29T16:03:16.181Z,87.74
2022-12-29T16:05:54.126Z,88.01
2022-12-29T16:08:39.572Z,89.79
2022-12-29T16:11:22.387Z,90.76
2022-12-29T16:13:51.235Z,91.02
2022-12-29T16:16:23.443Z,90.10
2022-12-29T16:19:06.120Z,91.96
2022-12-29T16:21:36.443Z,90.55
2022-12-29T16:24:10.843Z,91.02
2022-12-29T16:26:39.021Z,91.72
2022-12-29T16:29:10.431Z,91.63
2022-12-29T16:31:50.864Z,91.92
2022-12-29T16:34:26.274Z,91.86
2022-12-29T16:36:57.030Z,91.56
2022-12-29T16:39:32.373Z,91.08
2022-12-29T16:42:00.392Z,91.29
2022-12-29T16:44:29.166Z,90.04
2022-12-29T16:47:02.924Z,89.13
2022-12-29T16:49:33.279Z,90.37
2022-12-29T16:52:02.373Z,90.13
2022-12-29T16:54:34.641Z,90.70
2022-12-29T16:57:02.322Z,89.54
2022-12-29T16:59:37.593Z,88.09
2022-12-29T17:02:09.472Z,88.32
2022-12-29T17:04:39.331Z,91.87
2022-12-29T17:07:16.247Z,89.17
2022-12-29T17:09:43.235Z,88.96
2022-12-29T17:12:14.721Z,88.81
2022-12-29T17:14:50.349Z,89.54
2022-12-29T17:17:20.613Z,90.33
2022-12-29T17:19:55.410Z,90.75
2022-12-29T17:22:25.494Z,92.27
2022-12-29T17:24:52.960Z,89.68
2022-12-29T17:27:27.068Z,88.66
2022-12-29T17:29:57.520Z,87.77
2022-12-29T17:32:24.996Z,88.50
2022-12-29T17:34:53.326Z,88.66
2022-12-29T17:37:32.054Z,86.36
2022-12-29T17:40:00.165Z,88.04
2022-12-29T17:42:27.116Z,89.30
2022-12-29T17:44:54.267Z,91.30
2022-12-29T17:47:21.650Z,92.62
2022-12-29T17:49:49.608Z,93.95
2022-12-29T17:52:18.218Z,92.96
2022-12-29T17:54:49.752Z,91.05
2022-12-29T17:57:20.931Z,90.80
2022-12-29T17:59:48.569Z,90.96
2022-12-29T18:02:28.468Z,90.59
2022-12-29T18:04:56.738Z,92.40
2022-12-29T18:07:35.607Z,92.56
2022-12-29T18:10:04.106Z,93.85
2022-12-29T18:12:41.739Z,94.93
2022-12-29T18:15:19.389Z,92.54
2022-12-29T18:17:46.739Z,92.89
2022-12-29T18:20:14.796Z,93.28
2022-12-29T18:22:44.066Z,93.12
2022-12-29T18:25:25.669Z,92.48
2022-12-29T18:27:52.751Z,91.40
2022-12-29T18:30:19.959Z,90.47
2022-12-29T18:32:46.938Z,90.73
2022-12-29T18:35:19.903Z,91.33
2022-12-29T18:37:49.465Z,91.69
2022-12-29T18:40:16.368Z,91.94
2022-12-29T18:42:47.903Z,91.85
2022-12-29T18:45:19.723Z,90.65
2022-12-29T18:50:19.907Z,88.24
2022-12-29T18:52:49.264Z,88.14
2022-12-29T18:55:21.097Z,89.73
2022-12-29T18:57:48.642Z,91.40
2022-12-29T19:00:19.582Z,90.78
2022-12-29T19:02:47.188Z,92.68
2022-12-29T19:05:20.587Z,93.99
2022-12-29T19:07:48.976Z,94.38
2022-12-29T19:10:16.131Z,93.08
2022-12-29T19:12:44.361Z,93.19
2022-12-29T19:15:20.759Z,93.77
2022-12-29T19:17:56.666Z,94.51
2022-12-29T19:20:38.023Z,95.06
2022-12-29T19:23:08.147Z,95.36
2022-12-29T19:25:36.909Z,94.18
2022-12-29T19:28:04.975Z,94.61
2022-12-29T19:30:31.927Z,94.55
2022-12-29T19:33:08.062Z,93.60
2022-12-29T19:35:37.194Z,93.92
2022-12-29T19:38:04.417Z,93.02
2022-12-29T19:40:36.391Z,92.97
2022-12-29T19:43:03.620Z,93.51
2022-12-29T19:45:32.626Z,92.89
2022-12-29T19:47:59.576Z,94.98
2022-12-29T19:50:28.707Z,93.12
2022-12-29T19:53:04.778Z,93.70
2022-12-29T19:55:35.525Z,93.48
2022-12-29T19:58:04.383Z,94.07
2022-12-29T20:00:31.531Z,94.02
2022-12-29T20:03:02.917Z,92.93
2022-12-29T20:05:31.486Z,94.38
2022-12-29T20:08:01.020Z,94.22
2022-12-29T20:10:27.819Z,94.27
2022-12-29T20:12:57.647Z,93.65
2022-12-29T20:15:24.538Z,93.45
2022-12-29T20:20:42.095Z,92.29
2022-12-29T20:23:11.226Z,91.93
2022-12-29T20:25:45.144Z,92.62
2022-12-29T20:28:17.249Z,92.83
2022-12-29T20:30:57.892Z,93.55
2022-12-29T20:33:25.681Z,93.35
2022-12-29T20:35:53.590Z,93.04
2022-12-29T20:41:14.873Z,93.49
2022-12-29T20:43:43.081Z,95.32
2022-12-29T20:46:19.499Z,95.39
2022-12-29T20:48:48.470Z,95.28
2022-12-29T20:51:24.205Z,95.45
2022-12-29T20:53:51.931Z,94.04
2022-12-29T20:56:22.222Z,93.94
2022-12-29T21:01:40.766Z,95.36
2022-12-29T21:04:08.061Z,94.19
2022-12-29T21:06:36.106Z,94.54
2022-12-29T21:09:05.624Z,95.21
2022-12-29T21:11:35.385Z,95.34
2022-12-29T21:14:06.122Z,95.30
2022-12-29T21:16:34.264Z,96.78
2022-12-29T21:19:01.587Z,96.61
2022-12-29T21:21:28.840Z,97.05
2022-12-29T21:23:56.433Z,96.81
2022-12-29T21:26:26.561Z,95.68
2022-12-29T21:28:54.764Z,95.04
2022-12-29T21:31:27.838Z,94.52
2022-12-29T21:33:58.571Z,95.33
2022-12-29T21:36:28.306Z,96.99
2022-12-29T21:38:57.626Z,96.81
2022-12-29T21:41:25.312Z,96.40
2022-12-29T21:43:54.041Z,97.85
2022-12-29T21:46:22.982Z,96.72
2022-12-29T21:48:53.428Z,97.29
2022-12-29T21:51:26.793Z,99.31
2022-12-29T21:54:00.141Z,99.83
2022-12-29T21:56:26.887Z,100.00
2022-12-29T21:58:54.779Z,100.00
2022-12-29T22:01:22.670Z,100.00
2022-12-29T22:03:50.675Z,100.00
2022-12-29T22:06:21.686Z,100.00
2022-12-29T22:08:48.757Z,100.00
2022-12-29T22:11:18.780Z,97.52
2022-12-29T22:13:47.120Z,96.76
2022-12-29T22:16:14.297Z,97.62
2022-12-29T22:18:41.358Z,99.25
2022-12-29T22:21:10.259Z,100.00
2022-12-29T22:23:40.485Z,100.00
2022-12-29T22:26:12.580Z,100.00
2022-12-29T22:28:47.444Z,99.61
2022-12-29T22:31:25.314Z,100.00
2022-12-29T22:33:53.169Z,99.30
2022-12-29T22:36:20.531Z,99.08
2022-12-29T22:38:50.595Z,100.00
2022-12-29T22:41:19.162Z,100.00
2022-12-29T22:43:50.454Z,100.00
2022-12-29T22:46:20.107Z,100.00
2022-12-29T22:48:47.396Z,100.00
2022-12-29T22:51:14.646Z,100.00
2022-12-29T22:53:45.066Z,100.00
2022-12-29T22:56:15.698Z,99.70
2022-12-29T22:58:44.387Z,100.00
2022-12-29T23:01:12.655Z,100.00
2022-12-29T23:03:40.035Z,99.92
2022-12-29T23:06:10.884Z,99.70
2022-12-29T23:08:46.653Z,99.00
2022-12-29T23:11:15.469Z,97.92
2022-12-29T23:13:44.575Z,97.77
2022-12-29T23:16:12.035Z,91.07
2022-12-29T23:18:42.611Z,90.22
2022-12-29T23:21:12.025Z,91.86
2022-12-29T23:23:46.429Z,94.59
2022-12-29T23:26:18.307Z,97.32
2022-12-29T23:28:50.235Z,96.63
2022-12-29T23:31:20.017Z,97.23
2022-12-29T23:33:48.320Z,99.78
2022-12-29T23:36:16.468Z,100.00
2022-12-29T23:38:44.549Z,100.00
2022-12-29T23:41:13.707Z,100.00
2022-12-29T23:43:42.693Z,100.00
2022-12-29T23:46:11.286Z,99.67
2022-12-29T23:48:40.281Z,97.75
2022-12-29T23:51:07.690Z,97.64
2022-12-29T23:53:36.315Z,97.06
2022-12-29T23:56:05.607Z,97.83
2022-12-29T23:58:37.886Z,98.65
